Terminal Aerodrome Forecast
Issued by NWS

Home | Current Version | Previous Version | Text Only | Print | Product List | Glossary On
Versions: 1 2 3 4 5 6 7 8 9 10 11 12 13
180
FTUS45 KVEF 251129
TAFDAG
TAF
KDAG 251129Z 2512/2612 25007KT P6SM SKC
     FM251700 03012KT P6SM SKC
     FM251900 06012G20KT P6SM SKC
     FM260100 08007KT P6SM SKC
     FM260300 VRB05KT P6SM SKC
     FM260800 28008KT P6SM SKC=

USA.gov is the U.S. government's official web portal to all federal, state and local government web resources and services.